Kodiak, AK

4:17 AM AKDT on July 04, 2015 (GMT -0800)
Baranof | | Change Station
CLOSE
Current Station
Personal Weather Station
Location: Kodiak, AK
Elevation: 85 ft
Nearby Weather Stations

Elev 85 ft 57.80 °N, 152.38 °W | Updated 10 minutes ago

Light Rain
Light Rain Mist
50.2 °F
Feels Like 50.2 °F
N
1.7
Wind Variable Wind from NE

Today
High -- | Low -- °F
--% Chance of Precip.
Yesterday
High -- | Low -- °F
Precip. -- in
5:16 AM 11:11 PM
Waning Gibbous, 92% visible
Pressure 30.01 in
Visibility 3.0 miles
Clouds Overcast 600 ft
Dew Point 47 °F
Humidity 89%
Rainfall 0.11 in
Snow Depth Not available.
UV 0 out of 12
Pollen Not available.
Air Quality Not available.
Flu Activity Not available.
METAR PADQ 041153Z 05016KT 3SM -RA BR OVC006 11/11 A3001 RMK AO2 CIG 005V009 SLP163 P0005 60010 70010 T01110106 10133 20111 58015 $

More Conditions Fewer Conditions

Pressure 30.01 in
Visibility 3.0 miles
Clouds Overcast 600 ft
Dew Point 47 °F
Humidity 89%
Rainfall 0.11 in
Snow Depth Not available.
UV 0 out of 12
Pollen Not available.
Air Quality Not available.
Flu Activity Not available.
METAR PADQ 041153Z 05016KT 3SM -RA BR OVC006 11/11 A3001 RMK AO2 CIG 005V009 SLP163 P0005 60010 70010 T01110106 10133 20111 58015 $

More Conditions Fewer Conditions

10-Day Weather Forecast

×

Almanac

Astronomy

Jul. 04, 2015 Rise Set
Actual Time
Civil Twilight
Nautical Twilight
Astronomical Twilight
Moon
Length of Visible Light
Length of Day
Tomorrow will be .
, % of the Moon is Illuminated

Today's Extremes

State Highs State Lows

Community

WunderPhotos

Upload Photos

1,834,946 photos uploaded!

WunderBlogs® & News

Nearby

Air Quality

  Air Quality AQ Index Pollutant
Not available.

Snow Depth

Station Depth Elevation

Earthquake Activity

City Distance Mag. Time & Date
Minimum magnitude displayed is 2.5.

Coastal Water Temperatures

Place Temperature

Stations

Nearby Weather Stations

Station Location Temp. Windchill Dew Point Humidity Wind Precip. Elev Updated Type